Forside
METAR-TAF:

METAR-TAF

Lufthavne :

Jekaterinburg-Koltsovo Internationale Lufthavn

Jekaterinburg, Rusland

Breddekreds: 56-50N, længdekreds: 060-38E, højde: 237 m

Aktuelle vejr

Denne rapport blev lavet for 37 minutter siden, kl. 02:00 UTC
Vind 4 kt fra vestsydvest
Temperatur 17°C
Fugtighed 82%
Tryk 1014 hPa
Sigt 10 km eller mere
ingen skyer under 1500m og ingen cumulonimbus

METAR: USSS 250200Z 25002MPS CAVOK 17/14 Q1014 R26R/010060 R26L/010060 NOSIG RMK QFE740/0987

Tid: 07:37 (02:37 UTC)

Vejrudsigter

Denne rapport blev lavet for 3 timer og 39 minutter siden, kl. 22:58 UTC
Foreløbig gælder fra 25 på 00 UTC til 25 på 24 UTC
Vind 6 kt fra vest
Sigt 10 km eller mere
ingen skyer under 1500m og ingen cumulonimbus
ændring
fra 25 på 05 UTC til 25 på 06 UTC
Vind 10 kt fra nordnordvest
Midlertidig
fra 25 på 06 UTC til 25 på 10 UTC
Vind 21 kt fra nordnordvest

TAF: USSS 242258Z 2500/2524 28003MPS CAVOK BECMG 2505/2506 33005MPS TEMPO 2506/2510 34011MPS

Vejrobservationer og prognoser fra mere end 4000 lufthavne (METAR og TAF).

De gule og røde prikker repræsenterer de meteorologiske stationer.

Flyt musen over at se navnet på stationen.

Så klik over at se vejr observationer og prognoser.

At skifte det kort: Klik på de grønne knapper med et sort kors for at zoome ind; på den grønne knap med en bindestreg for at zoome ud; eller på de grønne pile for tilstødende kort.


METAR-TAF: